Time;durP1;ratioP1;P1;durP2;ratioP2;P2;SDS_P1;SDS_P2;PMS_P1;PMS_P2;Temp;Humidity;BMP_temperature;BMP_pressure;BME280_temperature;BME280_humidity;BME280_pressure;Samples;Min_cycle;Max_cycle;Signal;HPM_P1;HPM_P2
2022/05/27 00:03:03;;;;;;;1.57;0.60;;;18.40;99.90;;;;;;1923414;74;21076;-80
2022/05/27 00:05:54;;;;;;;1.30;0.42;;;18.30;99.90;;;;;;1918398;74;21094;-80
2022/05/27 00:09:05;;;;;;;2.25;0.80;;;18.30;99.90;;;;;;1917285;74;21597;-79
2022/05/27 00:11:56;;;;;;;1.47;0.50;;;18.20;99.90;;;;;;1937431;74;21077;-79
2022/05/27 00:14:48;;;;;;;2.80;0.70;;;18.20;99.90;;;;;;1923798;74;21234;-79
2022/05/27 00:17:40;;;;;;;1.57;0.60;;;18.20;99.90;;;;;;1920730;74;21499;-79
2022/05/27 00:20:31;;;;;;;1.25;0.70;;;18.10;99.90;;;;;;1917564;74;21110;-79
2022/05/27 00:23:23;;;;;;;2.25;0.60;;;18.10;99.90;;;;;;1905116;75;21060;-79
2022/05/27 00:26:15;;;;;;;0.95;0.33;;;18.00;99.90;;;;;;1905286;75;21531;-79
2022/05/27 00:29:06;;;;;;;1.40;0.50;;;18.00;99.90;;;;;;1905360;75;21561;-79
2022/05/27 00:31:58;;;;;;;0.42;0.33;;;18.00;99.90;;;;;;1905172;75;21570;-79
2022/05/27 00:34:50;;;;;;;1.15;0.50;;;18.00;99.90;;;;;;1905196;75;21139;-79
2022/05/27 00:37:42;;;;;;;1.80;0.60;;;18.00;99.90;;;;;;1905304;75;21157;-79
2022/05/27 00:40:39;;;;;;;1.77;0.53;;;18.00;99.90;;;;;;1913823;74;21551;-79
2022/05/27 00:43:31;;;;;;;1.67;0.50;;;18.00;99.90;;;;;;1920802;74;21085;-79
2022/05/27 00:46:25;;;;;;;0.75;0.50;;;18.10;99.90;;;;;;1920159;74;21495;-79
2022/05/27 00:52:01;;;;;;;1.37;0.78;;;18.00;99.90;;;;;;1954583;72;22107;-79
2022/05/27 00:55:15;;;;;;;1.17;0.65;;;17.90;99.90;;;;;;1899398;74;21122;-79
2022/05/27 01:01:07;;;;;;;1.80;0.60;;;17.70;99.90;;;;;;1958172;72;22197;-79
2022/05/27 01:04:18;;;;;;;1.10;0.62;;;17.80;99.90;;;;;;1896584;75;21082;-79
2022/05/27 01:07:28;;;;;;;1.42;0.53;;;17.70;99.90;;;;;;1895463;75;21139;-78
2022/05/27 01:10:20;;;;;;;1.32;0.45;;;17.70;99.90;;;;;;1914314;75;21054;-79
2022/05/27 01:13:37;;;;;;;1.20;0.60;;;17.70;99.90;;;;;;1894452;75;21104;-79
2022/05/27 01:16:34;;;;;;;1.85;0.70;;;17.70;99.90;;;;;;1884888;76;21592;-79
2022/05/27 01:23:15;;;;;;;2.27;0.62;;;17.70;99.90;;;;;;1895488;75;21059;-78
2022/05/27 01:26:40;;;;;;;2.77;0.60;;;17.70;99.90;;;;;;1874308;76;21139;-79
2022/05/27 01:29:45;;;;;;;1.20;0.62;;;17.60;99.90;;;;;;1870144;76;21147;-79
2022/05/27 01:32:40;;;;;;;4.42;0.90;;;17.70;99.90;;;;;;1822980;79;21078;-80
2022/05/27 01:38:17;;;;;;;1.12;0.80;;;17.60;99.90;;;;;;1976224;72;22122;-79
2022/05/27 01:41:32;;;;;;;1.27;0.65;;;17.60;99.90;;;;;;1917639;75;21187;-80
2022/05/27 01:44:45;;;;;;;1.90;0.98;;;17.60;99.90;;;;;;1929126;73;21615;-80
2022/05/27 01:47:40;;;;;;;1.57;0.72;;;17.50;99.90;;;;;;1944735;73;21128;-79
2022/05/27 01:53:35;;;;;;;1.67;0.50;;;17.30;99.90;;;;;;1946372;72;22217;-79
2022/05/27 01:59:31;;;;;;;2.58;0.80;;;17.00;99.90;;;;;;1941919;72;22091;-79
2022/05/27 02:02:44;;;;;;;2.12;0.60;;;17.00;99.90;;;;;;1897620;75;21094;-79
2022/05/27 02:05:58;;;;;;;2.75;0.50;;;17.00;99.90;;;;;;1899208;75;21100;-79
2022/05/27 02:08:53;;;;;;;1.12;0.60;;;17.00;99.90;;;;;;1915493;75;21095;-79
2022/05/27 02:12:08;;;;;;;1.90;0.50;;;17.00;99.90;;;;;;1894137;75;21184;-79
2022/05/27 02:17:44;;;;;;;1.25;0.50;;;16.80;99.90;;;;;;1957137;72;22174;-79
2022/05/27 02:20:58;;;;;;;0.80;0.50;;;16.80;99.90;;;;;;1935588;73;21064;-80
2022/05/27 02:24:11;;;;;;;2.67;0.60;;;16.70;99.90;;;;;;1935507;73;21080;-79
2022/05/27 02:27:06;;;;;;;2.15;0.60;;;16.80;99.90;;;;;;1917711;75;21122;-79
2022/05/27 02:30:18;;;;;;;1.55;0.50;;;16.80;99.90;;;;;;1930281;73;21047;-79
2022/05/27 02:36:24;;;;;;;1.45;0.60;;;16.70;99.90;;;;;;1917728;75;21511;-79
2022/05/27 02:39:15;;;;;;;1.57;0.60;;;16.70;99.90;;;;;;1938278;73;21092;-79
2022/05/27 02:42:12;;;;;;;1.52;0.60;;;16.60;99.90;;;;;;1917476;75;21047;-78
2022/05/27 02:47:48;;;;;;;1.98;0.80;;;16.50;99.90;;;;;;1945415;72;22225;-79
2022/05/27 02:51:02;;;;;;;2.02;0.60;;;16.50;99.90;;;;;;1907068;75;21556;-79
2022/05/27 02:54:17;;;;;;;1.85;0.70;;;16.40;99.90;;;;;;1912598;75;21141;-80
2022/05/27 02:57:12;;;;;;;1.85;0.80;;;16.30;99.90;;;;;;1914108;75;21164;-79
2022/05/27 03:00:24;;;;;;;1.22;0.50;;;16.30;99.90;;;;;;1906386;75;21078;-79
2022/05/27 03:03:16;;;;;;;1.20;0.70;;;16.20;99.90;;;;;;1905450;75;21148;-79
2022/05/27 03:06:30;;;;;;;1.72;0.70;;;16.20;99.90;;;;;;1897757;75;21529;-79
2022/05/27 03:09:26;;;;;;;1.95;0.80;;;16.10;99.90;;;;;;1900149;75;21125;-79
2022/05/27 03:12:22;;;;;;;1.75;0.68;;;16.10;99.90;;;;;;1887500;75;21128;-80
2022/05/27 03:18:08;;;;;;;1.37;0.68;;;16.00;99.90;;;;;;1976014;72;22110;-79
2022/05/27 03:21:22;;;;;;;1.75;0.75;;;16.00;99.90;;;;;;1932251;73;21569;-79
2022/05/27 03:27:22;;;;;;;2.30;0.60;;;15.90;99.90;;;;;;1954319;72;22533;-79
2022/05/27 03:33:15;;;;;;;2.15;0.60;;;15.90;99.90;;;;;;1958139;72;22246;-79
2022/05/27 03:36:28;;;;;;;2.45;0.90;;;15.90;99.90;;;;;;1915234;75;21113;-79
2022/05/27 03:39:41;;;;;;;1.15;0.68;;;15.90;99.90;;;;;;1887331;75;21543;-80
2022/05/27 03:42:33;;;;;;;1.90;0.68;;;15.90;99.90;;;;;;1906561;75;21220;-79
2022/05/27 03:45:53;;;;;;;3.77;1.12;;;15.90;99.90;;;;;;1907015;75;21131;-80
2022/05/27 03:48:44;;;;;;;1.95;0.60;;;15.90;99.90;;;;;;1905937;75;21422;-80
2022/05/27 03:54:15;;;;;;;1.70;0.60;;;15.90;99.90;;;;;;1945356;72;22103;-79
2022/05/27 03:57:25;;;;;;;1.57;0.70;;;15.90;99.90;;;;;;1883687;75;21084;-78
2022/05/27 04:00:35;;;;;;;1.25;0.53;;;15.80;99.90;;;;;;1878049;75;21067;-78
2022/05/27 04:03:26;;;;;;;3.65;0.90;;;15.80;99.90;;;;;;1879250;75;21160;-78
2022/05/27 04:06:36;;;;;;;2.17;0.70;;;15.80;99.90;;;;;;1888024;75;21646;-79
2022/05/27 04:09:28;;;;;;;1.90;0.70;;;15.70;99.90;;;;;;1895200;75;21577;-79
2022/05/27 04:12:21;;;;;;;1.45;0.62;;;15.70;99.90;;;;;;1886608;75;21170;-79
2022/05/27 04:15:13;;;;;;;1.52;0.85;;;15.80;99.90;;;;;;1852361;77;21654;-78
2022/05/27 04:18:05;;;;;;;1.57;0.70;;;15.70;99.90;;;;;;1892197;75;21047;-79
2022/05/27 04:20:57;;;;;;;2.80;0.65;;;15.70;99.90;;;;;;1889865;75;21110;-78
2022/05/27 04:26:28;;;;;;;1.25;0.82;;;15.70;99.90;;;;;;1942316;72;22205;-79
2022/05/27 04:29:41;;;;;;;2.00;0.70;;;15.70;99.90;;;;;;1936245;73;21564;-78
2022/05/27 04:32:51;;;;;;;0.98;0.60;;;15.70;99.90;;;;;;1951215;73;21108;-93
2022/05/27 04:38:22;;;;;;;1.92;0.75;;;15.80;99.90;;;;;;1962785;72;22566;-75
2022/05/27 04:41:31;;;;;;;1.82;0.70;;;15.80;99.90;;;;;;1917417;73;21084;-74
2022/05/27 04:44:41;;;;;;;1.20;0.70;;;15.90;99.90;;;;;;1922141;73;21078;-79
2022/05/27 04:47:33;;;;;;;1.92;0.68;;;15.90;99.90;;;;;;1932839;74;21561;-80
2022/05/27 04:50:43;;;;;;;3.52;0.80;;;16.00;99.90;;;;;;1940128;73;21098;-77
2022/05/27 04:53:35;;;;;;;2.12;0.80;;;16.10;99.90;;;;;;1913491;74;21509;-78
2022/05/27 04:56:27;;;;;;;2.05;0.62;;;16.20;99.90;;;;;;1915424;75;21090;-78
2022/05/27 04:59:19;;;;;;;3.10;0.95;;;16.20;99.90;;;;;;1922613;73;21276;-78
2022/05/27 05:02:10;;;;;;;2.90;1.00;;;16.20;99.90;;;;;;1920904;73;21109;-76
2022/05/27 05:05:02;;;;;;;1.87;0.78;;;16.30;99.90;;;;;;1933039;73;21174;-77
2022/05/27 05:07:57;;;;;;;1.50;0.80;;;16.40;99.90;;;;;;1914949;75;21140;-77
2022/05/27 05:10:49;;;;;;;1.62;0.70;;;16.40;99.90;;;;;;1918326;73;21063;-76
2022/05/27 05:16:19;;;;;;;2.15;0.70;;;16.50;99.90;;;;;;1953869;72;22189;-75
2022/05/27 05:22:07;;;;;;;1.95;0.82;;;16.50;99.90;;;;;;1958139;72;22162;-75
2022/05/27 05:25:17;;;;;;;2.02;0.70;;;16.60;99.90;;;;;;1906789;74;21079;-74
2022/05/27 05:28:27;;;;;;;2.17;0.85;;;16.60;99.90;;;;;;1895285;75;21031;-77
2022/05/27 05:31:19;;;;;;;1.77;0.90;;;16.70;99.90;;;;;;1906447;75;21114;-75
2022/05/27 05:34:29;;;;;;;3.58;0.80;;;16.80;99.90;;;;;;1913649;75;21127;-75
2022/05/27 05:37:20;;;;;;;3.77;1.02;;;16.80;99.90;;;;;;1904841;75;21170;-75
2022/05/27 05:40:14;;;;;;;1.72;0.80;;;16.70;99.90;;;;;;1900252;75;21103;-75
2022/05/27 05:43:06;;;;;;;2.00;1.00;;;16.60;99.90;;;;;;1906749;75;21675;-75
2022/05/27 05:45:57;;;;;;;2.65;0.93;;;16.60;99.90;;;;;;1906665;75;21039;-75
2022/05/27 05:48:49;;;;;;;2.92;0.90;;;16.50;99.90;;;;;;1906492;75;21618;-75
2022/05/27 05:51:41;;;;;;;5.47;0.90;;;16.50;99.90;;;;;;1917449;75;21164;-75
2022/05/27 05:54:33;;;;;;;2.08;0.90;;;16.50;99.90;;;;;;1895729;75;21106;-75
2022/05/27 05:57:24;;;;;;;2.58;0.70;;;16.50;99.90;;;;;;1906485;75;21090;-75
2022/05/27 06:00:19;;;;;;;2.10;0.85;;;16.50;99.90;;;;;;1886446;75;21042;-75
2022/05/27 06:03:11;;;;;;;3.25;0.70;;;16.60;99.90;;;;;;1898543;75;21067;-75
2022/05/27 06:06:03;;;;;;;2.67;0.80;;;16.50;99.90;;;;;;1897163;75;21523;-75
2022/05/27 06:11:36;;;;;;;1.92;1.02;;;16.60;99.90;;;;;;1949657;72;22129;-74
2022/05/27 06:14:46;;;;;;;1.32;0.70;;;16.60;99.90;;;;;;1918225;73;21034;-74
2022/05/27 06:17:59;;;;;;;0.88;0.70;;;16.60;99.90;;;;;;1916623;73;21059;-74
2022/05/27 06:23:30;;;;;;;2.27;0.90;;;16.60;99.90;;;;;;1946096;72;22300;-74
2022/05/27 06:26:40;;;;;;;2.08;0.80;;;16.60;99.90;;;;;;1891780;75;21106;-74
2022/05/27 06:36:26;;;;;;;1.45;0.80;;;16.90;99.90;;;;;;1905868;75;21053;-74
2022/05/27 06:39:17;;;;;;;2.27;0.78;;;17.10;99.90;;;;;;1876257;75;21054;-75
2022/05/27 06:42:11;;;;;;;4.33;0.90;;;17.10;99.90;;;;;;1884466;76;21553;-74
2022/05/27 06:45:08;;;;;;;1.20;0.60;;;17.30;99.90;;;;;;1899460;75;21120;-75
2022/05/27 06:50:40;;;;;;;0.72;0.70;;;17.50;99.90;;;;;;1928652;72;22660;-74
2022/05/27 06:53:50;;;;;;;2.35;0.70;;;17.50;99.90;;;;;;1904713;75;21160;-74
2022/05/27 06:56:59;;;;;;;2.87;0.62;;;17.50;99.90;;;;;;1894314;75;21125;-74
2022/05/27 06:59:52;;;;;;;1.52;0.78;;;17.60;99.90;;;;;;1899370;75;21486;-74
2022/05/27 07:03:03;;;;;;;3.05;1.05;;;17.70;99.90;;;;;;1900609;75;21611;-74
2022/05/27 07:05:55;;;;;;;1.57;0.70;;;17.80;99.90;;;;;;1884329;75;21179;-75
2022/05/27 07:08:46;;;;;;;2.67;1.12;;;17.90;99.90;;;;;;1877473;75;21123;-74
2022/05/27 07:11:38;;;;;;;1.85;0.90;;;17.90;99.90;;;;;;1908082;75;21091;-74
2022/05/27 07:17:12;;;;;;;1.87;0.70;;;18.10;99.90;;;;;;1954804;72;22577;-74
2022/05/27 07:20:23;;;;;;;1.55;0.78;;;18.20;99.90;;;;;;1901719;74;21237;-74
2022/05/27 07:23:35;;;;;;;2.50;0.90;;;18.20;99.90;;;;;;1884607;75;21095;-74
2022/05/27 07:26:27;;;;;;;3.83;0.90;;;18.30;99.90;;;;;;1916028;75;21121;-74
2022/05/27 07:29:37;;;;;;;4.22;0.90;;;18.30;99.90;;;;;;1917479;75;21106;-75
2022/05/27 07:32:29;;;;;;;2.77;0.80;;;18.30;99.90;;;;;;1896163;75;21562;-75
2022/05/27 07:35:21;;;;;;;4.50;0.90;;;18.40;99.90;;;;;;1884583;76;21102;-74
2022/05/27 07:38:13;;;;;;;2.15;0.90;;;18.40;99.90;;;;;;1896288;75;21059;-82
2022/05/27 07:41:06;;;;;;;2.52;0.90;;;18.50;99.90;;;;;;1915737;75;21559;-82
2022/05/27 07:43:59;;;;;;;3.27;0.75;;;18.50;99.90;;;;;;1898876;75;21414;-82
2022/05/27 07:46:53;;;;;;;2.37;0.80;;;18.50;99.90;;;;;;1917489;75;21119;-74
2022/05/27 07:52:24;;;;;;;0.93;0.75;;;18.70;99.90;;;;;;1934576;72;22389;-74
2022/05/27 07:55:33;;;;;;;2.00;0.90;;;18.80;99.90;;;;;;1916793;75;21105;-75
2022/05/27 07:58:43;;;;;;;2.87;1.10;;;18.90;99.90;;;;;;1907035;75;21108;-75
2022/05/27 08:01:36;;;;;;;2.67;0.75;;;19.00;99.90;;;;;;1905538;75;21094;-75
2022/05/27 08:04:45;;;;;;;1.62;0.80;;;19.10;99.90;;;;;;1897384;75;21059;-75
2022/05/27 08:07:36;;;;;;;2.45;0.80;;;19.10;99.90;;;;;;1898851;75;21094;-75
2022/05/27 08:10:30;;;;;;;2.55;0.90;;;19.20;99.90;;;;;;1902498;75;21118;-75
2022/05/27 08:13:21;;;;;;;2.30;0.80;;;19.30;99.90;;;;;;1906382;75;21173;-75
2022/05/27 08:16:13;;;;;;;2.35;0.85;;;19.30;99.90;;;;;;1931335;73;21046;-75
2022/05/27 08:19:05;;;;;;;2.47;0.90;;;19.30;99.90;;;;;;1892819;75;21101;-75
2022/05/27 08:21:56;;;;;;;2.22;0.90;;;19.30;99.90;;;;;;1895528;75;21199;-75
2022/05/27 08:24:47;;;;;;;2.72;0.90;;;19.40;99.90;;;;;;1890594;75;21187;-75
2022/05/27 08:27:39;;;;;;;1.72;0.78;;;19.50;99.90;;;;;;1910054;74;21045;-75
2022/05/27 08:33:10;;;;;;;0.90;0.80;;;19.60;99.90;;;;;;1944969;72;22118;-74
2022/05/27 08:39:53;;;;;;;1.95;0.80;;;19.60;99.90;;;;;;1901687;75;21155;-74
2022/05/27 08:42:49;;;;;;;1.35;0.78;;;19.70;99.90;;;;;;1917115;75;21099;-74
2022/05/27 08:46:04;;;;;;;2.37;0.80;;;19.70;99.90;;;;;;1916736;75;21067;-75
2022/05/27 08:48:58;;;;;;;1.52;0.85;;;19.80;99.90;;;;;;1897595;75;21259;-75
2022/05/27 08:51:54;;;;;;;1.75;0.68;;;19.90;99.90;;;;;;1904931;75;21119;-85
2022/05/27 09:00:52;;;;;;;3.22;1.12;;;20.00;99.90;;;;;;1895531;75;21598;-86
2022/05/27 09:06:43;;;;;;;1.95;0.70;;;20.20;99.90;;;;;;1952105;72;22119;-85
2022/05/27 09:09:54;;;;;;;1.75;0.72;;;20.30;99.90;;;;;;1918828;73;21105;-76
2022/05/27 09:13:10;;;;;;;2.20;1.00;;;20.40;99.90;;;;;;1917372;75;21122;-75
2022/05/27 09:18:44;;;;;;;2.45;0.80;;;20.60;99.90;;;;;;1942443;72;22115;-75
2022/05/27 09:21:59;;;;;;;2.22;0.72;;;20.70;99.90;;;;;;1884945;75;21149;-75
2022/05/27 09:25:18;;;;;;;3.33;1.00;;;20.80;99.90;;;;;;1918381;74;21195;-86
2022/05/27 09:31:07;;;;;;;4.47;0.80;;;21.10;99.90;;;;;;1950915;72;22183;-87
2022/05/27 09:34:18;;;;;;;2.12;1.00;;;21.20;99.90;;;;;;1932817;73;21043;-87
2022/05/27 09:37:30;;;;;;;4.10;0.80;;;21.30;99.90;;;;;;1917256;75;21618;-76
2022/05/27 09:40:25;;;;;;;1.57;0.65;;;21.40;99.90;;;;;;1917367;75;21055;-76
2022/05/27 09:46:21;;;;;;;1.10;0.80;;;21.50;99.90;;;;;;1958038;72;22291;-76
2022/05/27 09:49:31;;;;;;;1.77;0.80;;;21.70;99.90;;;;;;1915937;75;21087;-75
2022/05/27 09:52:43;;;;;;;3.50;0.88;;;21.80;99.90;;;;;;1895090;75;21027;-75
2022/05/27 09:55:39;;;;;;;2.85;1.02;;;21.90;99.90;;;;;;1895020;75;21203;-75
2022/05/27 09:58:49;;;;;;;1.77;0.88;;;22.00;99.90;;;;;;1884433;76;21138;-75
2022/05/27 10:01:40;;;;;;;2.65;0.98;;;22.20;99.90;;;;;;1884437;76;21109;-75
2022/05/27 10:04:32;;;;;;;2.87;1.32;;;22.30;99.90;;;;;;1884410;76;21055;-76
2022/05/27 10:10:28;;;;;;;2.25;0.70;;;22.30;99.90;;;;;;1948362;72;22224;-76
2022/05/27 10:13:41;;;;;;;0.95;0.80;;;22.20;99.90;;;;;;1896145;74;21055;-87
2022/05/27 10:17:07;;;;;;;4.40;1.40;;;22.10;99.90;;;;;;1888587;75;21054;-87
2022/05/27 10:20:18;;;;;;;2.10;0.90;;;21.90;99.90;;;;;;1906907;75;21111;-87
2022/05/27 10:23:30;;;;;;;3.25;0.80;;;21.90;99.90;;;;;;1893631;75;21193;-87
2022/05/27 10:26:26;;;;;;;1.10;0.70;;;22.10;99.90;;;;;;1884550;75;21068;-87
2022/05/27 10:29:19;;;;;;;0.78;0.75;;;22.10;99.90;;;;;;1906304;75;21101;-87
2022/05/27 10:32:11;;;;;;;1.50;0.78;;;22.10;99.90;;;;;;1901661;75;21136;-87
2022/05/27 10:35:04;;;;;;;2.65;0.90;;;22.20;99.90;;;;;;1902498;75;21126;-87
2022/05/27 10:37:59;;;;;;;2.05;1.00;;;22.40;99.90;;;;;;1888947;75;21573;-87
2022/05/27 10:40:54;;;;;;;3.52;0.93;;;22.50;99.90;;;;;;1898458;75;21105;-87
2022/05/27 10:44:07;;;;;;;1.82;0.95;;;22.50;99.90;;;;;;1903567;75;21064;-87
2022/05/27 10:50:04;;;;;;;2.52;0.90;;;22.70;99.90;;;;;;1949617;72;22110;-87
2022/05/27 10:53:26;;;;;;;3.17;0.90;;;22.70;99.90;;;;;;1901082;75;21084;-76
2022/05/27 11:02:03;;;;;;;2.25;1.25;;;22.60;99.90;;;;;;1910834;75;21024;-76
2022/05/27 11:03:24;;;;;;;2.22;1.00;;;22.80;99.90;;;;;;1882961;75;21173;-87
2022/05/27 11:11:57;;;;;;;1.82;1.00;;;23.10;99.90;;;;;;1933454;72;22199;-86
2022/05/27 11:15:12;;;;;;;3.02;0.80;;;23.20;99.90;;;;;;1902274;74;21094;-86
2022/05/27 11:18:29;;;;;;;1.75;0.80;;;23.30;99.90;;;;;;1906806;75;21054;-86
2022/05/27 11:21:47;;;;;;;2.10;0.90;;;23.30;99.90;;;;;;1908383;75;21391;-85
2022/05/27 11:25:23;;;;;;;2.12;0.80;;;23.40;99.90;;;;;;1895566;75;21110;-86
2022/05/27 11:28:52;;;;;;;2.43;0.80;;;23.30;99.90;;;;;;1911007;75;21051;-86
2022/05/27 11:31:50;;;;;;;0.90;0.70;;;23.40;99.90;;;;;;1906788;75;21050;-86
2022/05/27 11:34:45;;;;;;;3.67;1.00;;;23.40;99.90;;;;;;1906837;75;21117;-85
2022/05/27 11:37:46;;;;;;;1.47;0.82;;;23.50;99.90;;;;;;1906694;75;21063;-87
2022/05/27 11:40:44;;;;;;;2.33;0.85;;;23.50;99.90;;;;;;1884670;75;21151;-86
2022/05/27 11:43:48;;;;;;;3.65;0.95;;;23.70;99.90;;;;;;1900856;75;21076;-86
2022/05/27 11:46:48;;;;;;;0.82;0.75;;;23.70;99.90;;;;;;1899224;75;21116;-87
2022/05/27 11:49:47;;;;;;;2.08;1.10;;;23.70;99.90;;;;;;1884747;76;21251;-86
2022/05/27 11:52:50;;;;;;;1.60;0.60;;;23.80;99.90;;;;;;1913769;75;21102;-86
2022/05/27 11:55:53;;;;;;;2.15;0.80;;;23.90;99.90;;;;;;1913370;75;21048;-87
2022/05/27 11:58:51;;;;;;;1.40;0.90;;;23.90;99.90;;;;;;1906534;75;21122;-86
2022/05/27 12:01:46;;;;;;;3.45;1.07;;;23.90;99.90;;;;;;1905091;75;21094;-77
2022/05/27 12:04:42;;;;;;;2.77;0.80;;;23.70;99.90;;;;;;1900550;75;21417;-77
2022/05/27 12:07:38;;;;;;;1.25;0.80;;;23.90;99.90;;;;;;1896385;75;21100;-76
2022/05/27 12:10:33;;;;;;;3.33;0.80;;;23.80;99.90;;;;;;1888708;75;21183;-77
2022/05/27 12:13:29;;;;;;;1.85;0.80;;;23.90;99.90;;;;;;1915758;74;21199;-77
2022/05/27 12:16:22;;;;;;;1.20;0.72;;;23.90;99.90;;;;;;1894172;76;21047;-77
2022/05/27 12:19:18;;;;;;;2.20;0.90;;;24.00;99.90;;;;;;1911472;74;21125;-77
2022/05/27 12:22:12;;;;;;;2.52;0.95;;;24.00;99.90;;;;;;1907050;74;21051;-77
2022/05/27 12:25:07;;;;;;;2.37;0.80;;;24.10;99.90;;;;;;1896190;74;21066;-77
2022/05/27 12:28:02;;;;;;;2.15;0.80;;;24.10;99.90;;;;;;1915411;74;21128;-77
2022/05/27 12:30:56;;;;;;;0.68;0.60;;;24.30;99.90;;;;;;1915251;74;21051;-77
2022/05/27 12:33:47;;;;;;;1.70;0.70;;;24.30;99.90;;;;;;1910296;74;21102;-86
2022/05/27 12:36:39;;;;;;;2.20;0.93;;;24.30;99.90;;;;;;1904764;74;21055;-86
2022/05/27 12:39:32;;;;;;;2.00;0.70;;;24.40;99.90;;;;;;1904327;74;21058;-85
2022/05/27 12:42:31;;;;;;;1.57;0.75;;;24.50;99.90;;;;;;1904666;74;21106;-86
2022/05/27 12:45:31;;;;;;;4.83;0.70;;;24.50;99.90;;;;;;1906618;74;21117;-86
2022/05/27 12:48:36;;;;;;;1.77;0.80;;;24.40;99.90;;;;;;1910861;74;21058;-86
2022/05/27 12:51:39;;;;;;;1.25;0.72;;;24.50;99.90;;;;;;1908878;74;21080;-86
2022/05/27 12:55:06;;;;;;;3.47;0.80;;;24.70;99.90;;;;;;1893861;76;21599;-86
2022/05/27 13:01:27;;;;;;;2.33;0.70;;;25.00;99.90;;;;;;1908358;74;21051;-86
2022/05/27 13:04:44;;;;;;;0.98;0.60;;;25.00;99.90;;;;;;1906530;74;21076;-86
2022/05/27 13:07:50;;;;;;;0.90;0.53;;;24.90;99.90;;;;;;1907486;74;21055;-86
2022/05/27 13:10:50;;;;;;;1.77;0.60;;;25.10;99.90;;;;;;1894481;74;21063;-86
2022/05/27 13:13:43;;;;;;;0.70;0.60;;;25.00;99.90;;;;;;1915758;74;21127;-86
2022/05/27 13:16:43;;;;;;;1.05;0.50;;;25.20;99.90;;;;;;1917003;74;21104;-86
2022/05/27 13:19:40;;;;;;;0.60;0.60;;;25.30;99.90;;;;;;1898689;75;21357;-86
2022/05/27 13:22:38;;;;;;;1.15;0.75;;;25.10;99.90;;;;;;1893438;76;21144;-86
2022/05/27 13:25:34;;;;;;;3.22;0.65;;;25.20;99.90;;;;;;1906699;74;21128;-86
2022/05/27 13:28:32;;;;;;;4.22;0.93;;;25.30;99.90;;;;;;1895041;74;21625;-85
2022/05/27 13:31:28;;;;;;;2.80;0.80;;;25.30;99.90;;;;;;1915341;74;21183;-85
2022/05/27 13:34:24;;;;;;;1.65;0.60;;;25.30;99.90;;;;;;1894783;74;21091;-85
2022/05/27 13:37:23;;;;;;;1.20;0.60;;;25.50;99.90;;;;;;1907379;74;21117;-85
2022/05/27 13:40:19;;;;;;;1.60;0.70;;;25.60;99.90;;;;;;1909262;74;21225;-86
2022/05/27 13:43:17;;;;;;;2.55;0.60;;;25.60;99.90;;;;;;1904689;74;21550;-85
2022/05/27 13:46:16;;;;;;;1.05;0.57;;;25.70;99.90;;;;;;1904114;74;21506;-86
2022/05/27 13:49:12;;;;;;;1.57;0.60;;;26.00;99.90;;;;;;1904305;74;21132;-85
2022/05/27 13:52:14;;;;;;;2.62;0.70;;;26.20;99.90;;;;;;1904705;74;21577;-85
2022/05/27 13:55:11;;;;;;;1.22;0.60;;;26.20;99.90;;;;;;1912567;74;21134;-86
2022/05/27 13:58:09;;;;;;;2.40;0.60;;;26.50;99.90;;;;;;1908231;74;21091;-86
2022/05/27 14:01:06;;;;;;;4.35;0.65;;;26.80;99.90;;;;;;1904674;74;21139;-85
2022/05/27 14:04:11;;;;;;;0.88;0.60;;;27.00;99.90;;;;;;1904633;74;21135;-86
2022/05/27 14:07:07;;;;;;;1.87;0.50;;;27.40;99.90;;;;;;1904508;74;21082;-85
2022/05/27 14:10:02;;;;;;;3.02;0.60;;;27.10;99.90;;;;;;1904393;74;21071;-86
2022/05/27 14:12:57;;;;;;;2.85;0.60;;;27.20;99.90;;;;;;1899426;74;21649;-86
2022/05/27 14:15:50;;;;;;;2.10;1.07;;;27.40;99.90;;;;;;1899060;75;21506;-87
2022/05/27 14:18:42;;;;;;;2.05;0.70;;;27.30;99.90;;;;;;1894734;75;21051;-86
2022/05/27 14:24:45;;;;;;;0.98;0.50;;;27.50;99.90;;;;;;1893650;75;21176;-87
2022/05/27 14:27:43;;;;;;;1.15;0.60;;;27.50;99.90;;;;;;1893087;75;21113;-86
2022/05/27 14:30:43;;;;;;;1.55;0.57;;;27.30;99.90;;;;;;1867169;77;21185;-86
2022/05/27 14:33:41;;;;;;;1.37;0.60;;;27.60;99.90;;;;;;1897663;75;21117;-86
2022/05/27 14:36:39;;;;;;;0.85;0.60;;;27.50;99.90;;;;;;1872141;75;21067;-86
2022/05/27 14:39:30;;;;;;;1.85;0.60;;;27.70;99.90;;;;;;1893513;75;21204;-87
2022/05/27 14:42:24;;;;;;;1.77;0.50;;;28.10;99.90;;;;;;1893951;75;21512;-86
2022/05/27 14:45:45;;;;;;;1.37;0.70;;;28.40;99.90;;;;;;1883851;76;21088;-86
2022/05/27 14:48:39;;;;;;;2.22;0.60;;;28.50;99.90;;;;;;1891689;75;21530;-87
2022/05/27 14:51:36;;;;;;;2.15;0.55;;;28.30;99.90;;;;;;1889834;75;21205;-88
2022/05/27 14:54:29;;;;;;;;;;;28.60;99.90;;;;;;1886206;75;21107;-87
2022/05/27 14:57:24;;;;;;;1.52;0.55;;;28.60;99.90;;;;;;1882412;75;20192;-86
2022/05/27 15:00:28;;;;;;;2.17;0.50;;;28.80;99.90;;;;;;1882455;75;21071;-87
2022/05/27 15:03:32;;;;;;;1.82;0.45;;;28.80;99.90;;;;;;1895415;75;21190;-87
2022/05/27 15:06:26;;;;;;;1.32;0.50;;;28.60;99.90;;;;;;1890228;75;21052;-88
2022/05/27 15:09:24;;;;;;;1.20;0.60;;;28.70;99.90;;;;;;1904267;75;21523;-87
2022/05/27 15:12:19;;;;;;;1.12;0.53;;;28.90;99.90;;;;;;1881874;75;21110;-87
2022/05/27 15:15:13;;;;;;;2.22;0.65;;;29.10;99.90;;;;;;1877122;75;21080;-87
2022/05/27 15:18:12;;;;;;;1.47;0.55;;;29.30;99.90;;;;;;1906271;75;21104;-87
2022/05/27 15:21:08;;;;;;;0.62;0.47;;;29.60;99.90;;;;;;1884048;76;21211;-87
2022/05/27 15:24:06;;;;;;;1.05;0.50;;;29.30;99.90;;;;;;1887665;75;21122;-87
2022/05/27 15:33:36;;;;;;;0.98;0.40;;;29.50;99.90;;;;;;1883725;75;21063;-87
2022/05/27 15:36:25;;;;;;;1.42;0.50;;;29.80;99.90;;;;;;1882447;75;21640;-87
2022/05/27 15:39:27;;;;;;;1.75;0.40;;;29.60;99.90;;;;;;1880122;75;21113;-86
2022/05/27 15:42:25;;;;;;;1.55;0.40;;;29.50;99.90;;;;;;1884513;75;21102;-87
2022/05/27 15:45:29;;;;;;;1.90;0.42;;;29.60;99.90;;;;;;1857988;76;21145;-86
2022/05/27 15:48:22;;;;;;;0.72;0.40;;;29.40;99.90;;;;;;1899247;75;21110;-86
2022/05/27 15:51:16;;;;;;;1.17;0.40;;;29.40;99.90;;;;;;1884315;75;21121;-87
2022/05/27 15:54:08;;;;;;;1.65;0.47;;;29.40;99.90;;;;;;1877855;75;21097;-87
2022/05/27 15:57:04;;;;;;;2.05;0.47;;;29.60;99.90;;;;;;1881811;75;21132;-87
2022/05/27 15:59:58;;;;;;;1.25;0.57;;;29.50;99.90;;;;;;1903165;75;21196;-86
2022/05/27 16:02:54;;;;;;;0.88;0.40;;;29.40;99.90;;;;;;1906035;74;21122;-86
2022/05/27 16:05:47;;;;;;;5.25;0.50;;;29.50;99.90;;;;;;1893818;75;21105;-87
2022/05/27 16:08:41;;;;;;;1.05;0.50;;;29.60;99.90;;;;;;1876854;75;21117;-86
2022/05/27 16:11:42;;;;;;;1.32;0.40;;;29.60;99.90;;;;;;1901831;75;21128;-86
2022/05/27 16:14:36;;;;;;;1.22;0.70;;;29.60;99.90;;;;;;1872170;75;21143;-86
2022/05/27 16:20:45;;;;;;;0.40;0.40;;;30.10;99.90;;;;;;1883937;76;21173;-86
2022/05/27 16:23:41;;;;;;;0.50;0.40;;;29.90;99.90;;;;;;1881440;75;21143;-86
2022/05/27 16:26:41;;;;;;;1.60;0.50;;;29.70;99.90;;;;;;1894671;75;21121;-87
2022/05/27 16:29:38;;;;;;;1.72;0.40;;;29.30;99.90;;;;;;1892508;75;21115;-86
2022/05/27 16:32:49;;;;;;;1.75;0.40;;;29.30;99.90;;;;;;1892286;75;21051;-87
2022/05/27 16:35:43;;;;;;;3.27;0.60;;;29.50;99.90;;;;;;1903080;75;21107;-87
2022/05/27 16:38:34;;;;;;;0.37;0.30;;;29.70;99.90;;;;;;1906685;74;21110;-88
2022/05/27 16:41:29;;;;;;;3.00;0.62;;;29.70;99.90;;;;;;1893971;75;21122;-87
2022/05/27 16:44:22;;;;;;;1.98;0.45;;;29.40;99.90;;;;;;1893786;75;21051;-86
2022/05/27 16:47:16;;;;;;;3.30;0.70;;;29.30;99.90;;;;;;1893658;75;21080;-88
2022/05/27 16:50:12;;;;;;;0.85;0.50;;;29.30;99.90;;;;;;1883784;74;21038;-87
2022/05/27 16:53:04;;;;;;;1.80;0.47;;;29.10;99.90;;;;;;1895952;75;21648;-86
2022/05/27 16:55:57;;;;;;;1.80;0.42;;;28.70;99.90;;;;;;1887775;75;21578;-87
2022/05/27 16:58:51;;;;;;;1.57;0.40;;;28.90;99.90;;;;;;1864612;75;21070;-87
2022/05/27 17:01:46;;;;;;;2.25;0.47;;;28.80;99.90;;;;;;1884813;75;21176;-86
2022/05/27 17:04:38;;;;;;;0.85;0.50;;;28.50;99.90;;;;;;1872041;77;21558;-87
2022/05/27 17:07:29;;;;;;;0.40;0.40;;;28.20;99.90;;;;;;1871841;77;21118;-86
2022/05/27 17:10:22;;;;;;;1.72;0.60;;;28.40;99.90;;;;;;1871924;77;21068;-87
2022/05/27 17:13:13;;;;;;;1.85;0.45;;;28.50;99.90;;;;;;1872098;77;21059;-87
2022/05/27 17:16:05;;;;;;;0.95;0.40;;;28.50;99.90;;;;;;1872064;75;21090;-87
2022/05/27 17:18:56;;;;;;;1.72;0.60;;;28.70;99.90;;;;;;1871955;77;21206;-86
2022/05/27 17:21:48;;;;;;;0.85;0.40;;;28.10;99.90;;;;;;1872207;77;21110;-87
2022/05/27 17:24:40;;;;;;;1.27;0.40;;;27.80;99.90;;;;;;1872177;77;21084;-87
2022/05/27 17:27:32;;;;;;;1.85;0.40;;;27.40;99.90;;;;;;1882500;76;21555;-87
2022/05/27 17:30:24;;;;;;;3.27;0.40;;;27.30;99.90;;;;;;1886112;75;21132;-86
2022/05/27 17:33:15;;;;;;;0.70;0.50;;;26.90;99.90;;;;;;1895891;75;21060;-87
2022/05/27 17:36:07;;;;;;;1.62;0.50;;;26.80;99.90;;;;;;1876100;75;21220;-86
2022/05/27 17:38:58;;;;;;;1.10;0.50;;;26.80;99.90;;;;;;1884180;75;21150;-87